Airfield :
LOGIN :

Register | Disclaimer

   EN    FR    IT 

 










Legend :    VFR   Marginal VFR   IFR   Intensive IFR   Very Intensive IFR
Visi :
Ceiling :
>= 8 km
>= 3000ft
5 to 8 km
1000 to 3000 ft
1500m to 5 km
500 to 1000 ft
800 to 1500m
200 to 500 ft
< 800m
< 200 ft
Symbols :   Thunderstorms  Fog  Heavy snow  Heavy precipitations  Wind > 20 kt
SIGMETs :     Misc.  Thunderstorms  Icing  Turbulence  Mountain Waves  Volcanic Ashes






- Airport Elevation : 287 ft


LFRL - Lanveoc Poulmic

CURRENT METAR :
  • 021700Z AUTO 27010KT 9999 FEW020 SCT025 OVC054 17/12 Q1021

EXPIRED METARs :
  • 021630Z AUTO 27011KT 9999 SCT019 SCT026 OVC054 17/12 Q1021
  • 021600Z AUTO 28012KT 9999 FEW019 OVC054 17/12 Q1021
  • 021530Z AUTO 28011KT 9999 SCT042 BKN048 OVC054 17/13 Q1021
  • 021500Z AUTO 28010KT 250V310 9999 SCT030 BKN038 OVC060 17/12 Q1021
  • 020300Z AUTO 21005KT CAVOK 11/11 Q1020
  • 021430Z AUTO 27008KT 9999 FEW009 SCT016 OVC024 16/13 Q1021

Expired Forecast.



MET'MAP, your aeronautical weather chart ! - Copyright ORBIFLY December 2007 - Disclaimer

ORBIFLY MET'MAP TEAM :

Programming & Development : Alexandra Zaïnal
Original concept : Baudouin d'Aumeries
Technical & hardware support : Manuel Goepfert
Assistance : Marc-Olivier Méhu




SOURCES & CREDITS :

   NOAA